This is the latest recevied weather packets stored in our database for station/object KC4JIR. If no packets are shown the sender has not sent any weather packets the latest 10 day(s).
| Time | Temp. | Humidity | Pressure | Rain* | Wind** | Luminosity | Snow |
|---|---|---|---|---|---|---|---|
| 1778081731 | 26.11° C | 64% | 1014.5 hPa | 0 mm | - | 764 W/m² | - |
| 1778081429 | 26.11° C | 64% | 1014.6 hPa | 0 mm | - | 928 W/m² | - |
| 1778081125 | 25.56° C | 70% | 1014.5 hPa | 0 mm | - | 1036 W/m² | - |
| 1778080824 | 24.44° C | 74% | 1014.4 hPa | 0 mm | - | 908 W/m² | - |
| 1778080521 | 23.89° C | 76% | 1014.5 hPa | 0 mm | - | 443 W/m² | - |
| 1778080218 | 23.89° C | 77% | 1014.7 hPa | 0 mm | - | 322 W/m² | - |
| 1778079914 | 23.33° C | 78% | 1014.4 hPa | 0 mm | - | 373 W/m² | - |
| 1778079612 | 23.33° C | 78% | 1014.6 hPa | 0 mm | - | 312 W/m² | - |
| 1778079308 | 22.78° C | 79% | 1014.5 hPa | 0 mm | - | 347 W/m² | - |
| 1778079006 | 22.78° C | 80% | 1014.3 hPa | 0 mm | - | 328 W/m² | - |
| 1778078702 | 22.22° C | 82% | 1014.6 hPa | 0 mm | - | 260 W/m² | - |
| 1778078400 | 22.22° C | 83% | 1014.3 hPa | 0 mm | - | 237 W/m² | - |
| 1778078097 | 21.67° C | 83% | 1014.2 hPa | 0 mm | - | 394 W/m² | - |
| 1778077795 | 21.67° C | 83% | 1014.2 hPa | 0 mm | - | 184 W/m² | - |
| 1778077493 | 21.67° C | 83% | 1013.9 hPa | 0 mm | - | 204 W/m² | - |
| 1778077190 | 21.67° C | 85% | 1013.9 hPa | 0 mm | - | 199 W/m² | - |
| 1778076888 | 21.67° C | 85% | 1013.8 hPa | 0 mm | - | 198 W/m² | - |
| 1778076587 | 21.67° C | 84% | 1013.9 hPa | 0 mm | - | 188 W/m² | - |
| 1778076283 | 21.11° C | 86% | 1013.9 hPa | 0 mm | - | 236 W/m² | - |
| 1778075980 | 21.11° C | 86% | 1013.8 hPa | 0 mm | - | 205 W/m² | - |
| 1778075677 | 20.56° C | 87% | 1014.2 hPa | 0 mm | - | 177 W/m² | - |
| 1778075373 | 20.56° C | 87% | 1014.1 hPa | 0 mm | - | 178 W/m² | - |
| 1778075069 | 20° C | 88% | 1014 hPa | 0 mm | - | 168 W/m² | - |
| 1778074766 | 20° C | 88% | 1014 hPa | 0 mm | - | 146 W/m² | - |
| 1778074463 | 20° C | 88% | 1014 hPa | 0 mm | - | 123 W/m² | - |
* Rain latest hour (hover to see other rain measurements)
** Current wind speed in m/s (hover to see current wind gust speed)